This is the latest recevied weather packets stored in our database for station/object OK3FM-14. If no packets are shown the sender has not sent any weather packets the latest 10 day(s).
| Time | Temp. | Humidity | Pressure | Rain* | Wind** | Luminosity | Snow |
|---|---|---|---|---|---|---|---|
| 1787462879 | 16.67° C | 59% | 1023.6 hPa | - | - | - | - |
| 1787462279 | 15° C | 64% | 1023.6 hPa | - | - | - | - |
| 1787461679 | 14.44° C | 67% | 1023.6 hPa | - | - | - | - |
| 1787461079 | 13.33° C | 71% | 1023.5 hPa | - | - | - | - |
| 1787460479 | 11.67° C | 76% | 1023.5 hPa | - | - | - | - |
| 1787459879 | 11.11° C | 79% | 1023.4 hPa | - | - | - | - |
| 1787459279 | 10° C | 84% | 1023.4 hPa | - | - | - | - |
| 1787458680 | 10° C | 86% | 1023.3 hPa | - | - | - | - |
| 1787458080 | 9.44° C | 87% | 1023.3 hPa | - | - | - | - |
| 1787457479 | 9.44° C | 88% | 1023.2 hPa | - | - | - | - |
| 1787456879 | 8.89° C | 88% | 1023.3 hPa | - | - | - | - |
| 1787456279 | 9.44° C | 88% | 1023.1 hPa | - | - | - | - |
| 1787455679 | 9.44° C | 89% | 1023.1 hPa | - | - | - | - |
| 1787455079 | 9.44° C | 90% | 1023 hPa | - | - | - | - |
| 1787454479 | 9.44° C | 89% | 1023.1 hPa | - | - | - | - |
| 1787453879 | 9.44° C | 88% | 1023.1 hPa | - | - | - | - |
| 1787453279 | 9.44° C | 88% | 1023.1 hPa | - | - | - | - |
| 1787452679 | 9.44° C | 88% | 1023.1 hPa | - | - | - | - |
| 1787452079 | 9.44° C | 88% | 1023.2 hPa | - | - | - | - |
| 1787451479 | 9.44° C | 86% | 1023.1 hPa | - | - | - | - |
| 1787450879 | 9.44° C | 85% | 1023.2 hPa | - | - | - | - |
| 1787450279 | 9.44° C | 88% | 1023.1 hPa | - | - | - | - |
| 1787449679 | 9.44° C | 85% | 1023 hPa | - | - | - | - |
| 1787449084 | 9.44° C | 84% | 1023 hPa | - | - | - | - |
| 1787448478 | 9.44° C | 85% | 1022.9 hPa | - | - | - | - |
* Rain since midnight (hover to see other rain measurements)
** Current wind speed in m/s (hover to see current wind gust speed)